Terminal Aerodrome Forecast
Issued by NWS Springfield, MO

Home | Current Version | Previous Version | Text Only | Print | Product List | Glossary On
Versions: 1 2 3 4 5 6 7 8 9 10 11 12 13 14 15 16
000
FTUS43 KSGF 270520
TAFSGF
TAF
KSGF 270520Z 2706/2806 VRB04KT P6SM VCTS BKN040CB
     FM270900 14007KT P6SM BKN030
      TEMPO 2710/2712 5SM BR
     FM271700 18011G17KT P6SM BKN035
     FM272300 19010KT P6SM VCTS BKN040CB PROB30 2723/2803 5SM TS
      BKN030CB=

USA.gov is the U.S. government's official web portal to all federal, state and local government web resources and services.